createdAt,value
2022-11-26T00:02:31.528Z,101362.22
2022-11-26T00:04:59.816Z,101365.53
2022-11-26T00:07:30.287Z,101382.03
2022-11-26T00:09:59.730Z,101368.84
2022-11-26T00:12:35.006Z,101376.59
2022-11-26T00:15:24.727Z,101363.34
2022-11-26T00:17:52.992Z,101377.84
2022-11-26T00:20:25.325Z,101378.34
2022-11-26T00:22:55.494Z,101372.91
2022-11-26T00:25:27.004Z,101386.75
2022-11-26T00:27:56.175Z,101391.38
2022-11-26T00:30:27.124Z,101393.22
2022-11-26T00:32:55.714Z,101398.88
2022-11-26T00:35:24.075Z,101394.59
2022-11-26T00:37:57.952Z,101400.97
2022-11-26T00:40:28.639Z,101403.72
2022-11-26T00:43:01.287Z,101412.56
2022-11-26T00:45:31.397Z,101406.16
2022-11-26T00:47:58.499Z,101415.66
2022-11-26T00:50:27.637Z,101418.16
2022-11-26T00:52:56.930Z,101427.47
2022-11-26T00:55:40.374Z,101432.19
2022-11-26T00:58:21.329Z,101435.38
2022-11-26T01:00:48.299Z,101440.38
2022-11-26T01:03:15.353Z,101443.53
2022-11-26T01:05:43.570Z,101445.06
2022-11-26T01:08:35.385Z,101451.97
2022-11-26T01:11:05.098Z,101457.22
2022-11-26T01:13:32.634Z,101459.41
2022-11-26T01:16:02.864Z,101455.56
2022-11-26T01:18:35.049Z,101455.38
2022-11-26T01:21:02.057Z,101466.09
2022-11-26T01:23:29.151Z,101466.00
2022-11-26T01:25:56.123Z,101474.25
2022-11-26T01:28:23.070Z,101471.91
2022-11-26T01:30:50.038Z,101471.91
2022-11-26T01:33:18.036Z,101487.66
2022-11-26T01:35:46.002Z,101485.88
2022-11-26T01:38:14.768Z,101486.97
2022-11-26T01:41:12.743Z,101493.31
2022-11-26T01:43:44.165Z,101487.38
2022-11-26T01:46:18.619Z,101506.38
2022-11-26T01:48:47.132Z,101500.84
2022-11-26T01:51:27.260Z,101497.56
2022-11-26T01:54:00.467Z,101499.53
2022-11-26T01:56:46.316Z,101505.13
2022-11-26T01:59:26.336Z,101517.66
2022-11-26T02:01:59.009Z,101514.25
2022-11-26T02:04:32.516Z,101516.66
2022-11-26T02:07:00.116Z,101519.41
2022-11-26T02:09:28.850Z,101514.00
2022-11-26T02:11:56.315Z,101511.00
2022-11-26T02:14:34.096Z,101507.66
2022-11-26T02:17:26.101Z,101516.75
2022-11-26T02:20:14.994Z,101521.84
2022-11-26T02:23:18.808Z,101531.81
2022-11-26T02:26:23.620Z,101525.66
2022-11-26T02:29:20.272Z,101530.84
2022-11-26T02:32:00.059Z,101530.50
2022-11-26T02:34:40.417Z,101533.59
2022-11-26T02:37:23.474Z,101540.94
2022-11-26T02:39:52.184Z,101537.66
2022-11-26T02:42:32.807Z,101535.75
2022-11-26T02:45:37.622Z,101546.00
2022-11-26T02:48:11.781Z,101546.50
2022-11-26T02:50:49.798Z,101553.06
2022-11-26T02:53:21.823Z,101544.19
2022-11-26T02:56:01.652Z,101557.47
2022-11-26T02:58:29.291Z,101556.00
2022-11-26T03:01:00.279Z,101561.41
2022-11-26T03:03:33.815Z,101555.22
2022-11-26T03:06:06.678Z,101562.47
2022-11-26T03:08:33.992Z,101568.34
2022-11-26T03:11:01.004Z,101561.00
2022-11-26T03:13:28.430Z,101556.22
2022-11-26T03:15:55.351Z,101561.88
2022-11-26T03:18:22.323Z,101574.00
2022-11-26T03:20:52.518Z,101579.81
2022-11-26T03:23:20.025Z,101582.00
2022-11-26T03:25:46.909Z,101580.69
2022-11-26T03:28:14.227Z,101574.53
2022-11-26T03:30:41.122Z,101581.03
2022-11-26T03:33:08.022Z,101581.38
2022-11-26T03:35:35.015Z,101575.72
2022-11-26T03:38:02.085Z,101581.56
2022-11-26T03:40:29.059Z,101580.13
2022-11-26T03:42:55.977Z,101576.03
2022-11-26T03:45:22.900Z,101572.53
2022-11-26T03:47:49.979Z,101578.44
2022-11-26T03:50:17.124Z,101576.50
2022-11-26T03:52:44.109Z,101581.16
2022-11-26T03:55:11.263Z,101572.66
2022-11-26T03:57:38.384Z,101578.50
2022-11-26T04:00:09.104Z,101579.41
2022-11-26T04:02:36.849Z,101570.00
2022-11-26T04:05:04.621Z,101567.25
2022-11-26T04:07:31.603Z,101569.91
2022-11-26T04:09:58.572Z,101561.13
2022-11-26T04:12:25.550Z,101556.25
2022-11-26T04:14:52.593Z,101554.47
2022-11-26T04:17:19.532Z,101554.88
2022-11-26T04:19:46.472Z,101557.16
2022-11-26T04:22:13.564Z,101557.25
2022-11-26T04:24:40.928Z,101559.78
2022-11-26T04:27:08.058Z,101556.44
2022-11-26T04:29:36.337Z,101562.22
2022-11-26T04:32:04.468Z,101569.03
2022-11-26T04:34:31.581Z,101567.53
2022-11-26T04:36:58.538Z,101580.25
2022-11-26T04:39:25.479Z,101594.25
2022-11-26T04:41:52.581Z,101603.50
2022-11-26T04:44:19.493Z,101596.16
2022-11-26T04:46:46.465Z,101593.75
2022-11-26T04:49:13.512Z,101598.13
2022-11-26T04:51:40.438Z,101599.00
2022-11-26T04:54:12.607Z,101602.66
2022-11-26T04:56:39.989Z,101609.09
2022-11-26T04:59:07.023Z,101607.81
2022-11-26T05:01:35.229Z,101610.00
2022-11-26T05:04:02.230Z,101615.84
2022-11-26T05:06:29.197Z,101612.22
2022-11-26T05:08:56.159Z,101614.31
2022-11-26T05:11:23.097Z,101622.81
2022-11-26T05:13:50.127Z,101627.88
2022-11-26T05:16:17.306Z,101635.28
2022-11-26T05:18:44.269Z,101643.38
2022-11-26T05:21:11.243Z,101637.25
2022-11-26T05:23:38.100Z,101644.13
2022-11-26T05:26:05.316Z,101643.00
2022-11-26T05:28:32.304Z,101647.06
2022-11-26T05:31:01.672Z,101654.91
2022-11-26T05:33:29.510Z,101656.09
2022-11-26T05:35:56.966Z,101657.47
2022-11-26T05:38:24.076Z,101672.69
2022-11-26T05:40:51.290Z,101674.25
2022-11-26T05:43:18.301Z,101664.03
2022-11-26T05:45:45.306Z,101662.03
2022-11-26T05:48:12.446Z,101667.78
2022-11-26T05:50:39.553Z,101669.94
2022-11-26T05:53:06.508Z,101676.28
2022-11-26T05:55:33.749Z,101683.19
2022-11-26T05:58:00.871Z,101680.41
2022-11-26T06:00:28.286Z,101690.06
2022-11-26T06:02:55.355Z,101686.69
2022-11-26T06:05:22.538Z,101688.41
2022-11-26T06:07:50.300Z,101697.41
2022-11-26T06:10:17.733Z,101700.31
2022-11-26T06:12:44.753Z,101713.47
2022-11-26T06:15:11.938Z,101714.03
2022-11-26T06:17:38.954Z,101717.59
2022-11-26T06:20:06.827Z,101714.13
2022-11-26T06:22:38.675Z,101727.09
2022-11-26T06:25:13.261Z,101721.09
2022-11-26T06:27:40.547Z,101719.88
2022-11-26T06:30:11.363Z,101721.25
2022-11-26T06:32:38.411Z,101725.03
2022-11-26T06:35:06.436Z,101724.13
2022-11-26T06:37:34.790Z,101721.69
2022-11-26T06:40:02.959Z,101726.69
2022-11-26T06:42:29.996Z,101732.50
2022-11-26T06:44:59.790Z,101730.06
2022-11-26T06:47:29.402Z,101731.69
2022-11-26T06:49:56.398Z,101732.16
2022-11-26T06:52:23.336Z,101734.75
2022-11-26T06:54:50.586Z,101739.31
2022-11-26T06:57:17.502Z,101741.66
2022-11-26T06:59:44.409Z,101739.84
2022-11-26T07:02:11.699Z,101736.69
2022-11-26T07:04:39.039Z,101742.47
2022-11-26T07:07:06.148Z,101747.72
2022-11-26T07:09:33.075Z,101744.03
2022-11-26T07:12:00.045Z,101745.47
2022-11-26T07:14:27.256Z,101755.09
2022-11-26T07:16:54.148Z,101751.31
2022-11-26T07:19:21.054Z,101760.38
2022-11-26T07:21:47.922Z,101759.81
2022-11-26T07:24:15.474Z,101769.56
2022-11-26T07:26:43.857Z,101768.41
2022-11-26T07:29:10.859Z,101771.63
2022-11-26T07:31:37.851Z,101774.88
2022-11-26T07:34:04.996Z,101768.97
2022-11-26T07:36:31.990Z,101780.38
2022-11-26T07:39:02.282Z,101785.25
2022-11-26T07:41:30.530Z,101780.63
2022-11-26T07:43:58.291Z,101775.84
2022-11-26T07:46:26.733Z,101777.28
2022-11-26T07:48:56.063Z,101784.72
2022-11-26T07:51:29.830Z,101778.44
2022-11-26T07:53:59.245Z,101777.94
2022-11-26T07:56:27.085Z,101780.22
2022-11-26T07:58:54.118Z,101789.72
2022-11-26T08:01:24.723Z,101796.88
2022-11-26T08:03:52.151Z,101799.78
2022-11-26T08:06:25.878Z,101802.50
2022-11-26T08:08:53.379Z,101799.19
2022-11-26T08:11:27.343Z,101810.03
2022-11-26T08:14:10.299Z,101817.38
2022-11-26T08:16:37.465Z,101822.50
2022-11-26T08:19:12.303Z,101820.44
2022-11-26T08:21:39.908Z,101814.34
2022-11-26T08:24:13.691Z,101816.84
2022-11-26T08:26:44.103Z,101816.44
2022-11-26T08:29:12.613Z,101816.78
2022-11-26T08:31:45.815Z,101827.03
2022-11-26T08:34:16.157Z,101824.38
2022-11-26T08:36:43.771Z,101825.13
2022-11-26T08:39:17.258Z,101821.47
2022-11-26T08:41:51.771Z,101830.28
2022-11-26T08:44:20.081Z,101826.41
2022-11-26T08:46:47.259Z,101822.16
2022-11-26T08:49:16.960Z,101823.66
2022-11-26T08:51:44.583Z,101821.31
2022-11-26T08:54:11.930Z,101821.41
2022-11-26T08:56:38.974Z,101824.09
2022-11-26T08:59:05.981Z,101826.00
2022-11-26T09:01:34.284Z,101831.94
2022-11-26T09:04:03.442Z,101842.84
2022-11-26T09:06:33.178Z,101845.44
2022-11-26T09:09:13.459Z,101849.97
2022-11-26T09:11:40.553Z,101848.38
2022-11-26T09:14:07.820Z,101841.19
2022-11-26T09:16:34.929Z,101841.44
2022-11-26T09:19:04.438Z,101846.09
2022-11-26T09:21:31.670Z,101841.44
2022-11-26T09:23:58.568Z,101838.69
2022-11-26T09:26:25.780Z,101853.56
2022-11-26T09:28:53.073Z,101844.19
2022-11-26T09:31:20.232Z,101846.13
2022-11-26T09:33:48.004Z,101850.88
2022-11-26T09:36:17.398Z,101855.66
2022-11-26T09:38:45.520Z,101859.72
2022-11-26T09:41:27.474Z,101862.25
2022-11-26T09:44:17.350Z,101865.91
2022-11-26T09:47:15.094Z,101851.59
2022-11-26T09:50:06.232Z,101859.22
2022-11-26T09:53:02.575Z,101843.66
2022-11-26T09:55:38.854Z,101848.69
2022-11-26T09:58:33.332Z,101842.34
2022-11-26T10:01:04.737Z,101845.72
2022-11-26T10:03:35.944Z,101839.22
2022-11-26T10:06:36.220Z,101846.34
2022-11-26T10:09:28.843Z,101843.97
2022-11-26T10:12:50.331Z,101861.72
2022-11-26T10:15:40.241Z,101861.84
2022-11-26T10:18:37.985Z,101865.44
2022-11-26T10:21:57.180Z,101860.94
2022-11-26T10:24:43.442Z,101857.88
2022-11-26T10:27:20.442Z,101864.72
2022-11-26T10:29:56.749Z,101851.53
2022-11-26T10:32:28.199Z,101856.72
2022-11-26T10:34:58.078Z,101847.78
2022-11-26T10:37:27.523Z,101850.81
2022-11-26T10:40:07.456Z,101843.81
2022-11-26T10:42:43.891Z,101847.47
2022-11-26T10:45:22.237Z,101846.22
2022-11-26T10:47:49.297Z,101849.41
2022-11-26T10:50:47.155Z,101844.66
2022-11-26T10:53:23.109Z,101846.50
2022-11-26T10:55:54.285Z,101846.50
2022-11-26T10:58:30.364Z,101844.41
2022-11-26T11:01:02.202Z,101853.41
2022-11-26T11:06:44.049Z,101836.47
2022-11-26T11:09:34.915Z,101840.34
2022-11-26T11:12:10.986Z,101848.41
2022-11-26T11:14:45.555Z,101837.81
2022-11-26T11:17:38.767Z,101833.66
2022-11-26T11:20:17.967Z,101829.19
2022-11-26T11:22:46.065Z,101835.84
2022-11-26T11:25:26.826Z,101827.38
2022-11-26T11:28:10.493Z,101823.38
2022-11-26T11:30:41.115Z,101821.84
2022-11-26T11:33:24.806Z,101817.19
2022-11-26T11:36:14.480Z,101819.00
2022-11-26T11:39:00.994Z,101812.41
2022-11-26T11:41:46.116Z,101793.72
2022-11-26T11:44:42.268Z,101801.50
2022-11-26T11:47:34.542Z,101797.84
2022-11-26T11:50:18.142Z,101792.53
2022-11-26T11:53:26.830Z,101777.78
2022-11-26T11:56:15.909Z,101775.63
2022-11-26T11:59:16.367Z,101775.56
2022-11-26T12:01:55.343Z,101771.44
2022-11-26T12:04:40.399Z,101778.34
2022-11-26T12:07:38.748Z,101794.81
2022-11-26T12:10:40.704Z,101787.78
2022-11-26T12:13:13.177Z,101780.75
2022-11-26T12:15:53.720Z,101790.59
2022-11-26T12:18:34.709Z,101786.69
2022-11-26T12:21:37.654Z,101792.28
2022-11-26T12:24:36.361Z,101803.19
2022-11-26T12:27:32.016Z,101797.28
2022-11-26T12:30:22.737Z,101795.75
2022-11-26T12:33:02.319Z,101798.34
2022-11-26T12:35:34.939Z,101794.13
2022-11-26T12:38:13.834Z,101792.53
2022-11-26T12:41:20.327Z,101789.84
2022-11-26T12:43:56.790Z,101796.84
2022-11-26T12:47:14.306Z,101785.34
2022-11-26T12:50:00.439Z,101791.38
2022-11-26T12:53:09.736Z,101796.78
2022-11-26T12:55:48.297Z,101792.25
2022-11-26T12:58:22.830Z,101787.53
2022-11-26T13:00:54.076Z,101783.06
2022-11-26T13:03:32.207Z,101777.75
2022-11-26T13:06:28.059Z,101790.84
2022-11-26T13:09:22.658Z,101793.06
2022-11-26T13:12:09.160Z,101794.63
2022-11-26T13:14:52.155Z,101778.75
2022-11-26T13:17:23.814Z,101782.13
2022-11-26T13:20:28.243Z,101790.75
2022-11-26T13:23:38.261Z,101783.25
2022-11-26T13:26:21.458Z,101793.69
2022-11-26T13:29:25.531Z,101792.78
2022-11-26T13:32:39.285Z,101791.50
2022-11-26T13:36:09.545Z,101782.06
2022-11-26T13:39:23.409Z,101792.25
2022-11-26T13:42:12.332Z,101794.22
2022-11-26T13:45:02.735Z,101791.91
2022-11-26T13:47:49.890Z,101790.06
2022-11-26T13:50:37.962Z,101790.50
2022-11-26T13:53:15.500Z,101794.63
2022-11-26T13:55:52.381Z,101797.84
2022-11-26T13:58:28.310Z,101791.72
2022-11-26T14:00:55.331Z,101783.31
2022-11-26T14:03:46.751Z,101780.97
2022-11-26T14:06:15.106Z,101787.09
2022-11-26T14:08:46.865Z,101789.78
2022-11-26T14:11:45.684Z,101793.69
2022-11-26T14:14:24.791Z,101792.94
2022-11-26T14:17:00.859Z,101791.44
2022-11-26T14:19:41.072Z,101784.13
2022-11-26T14:22:21.860Z,101779.13
2022-11-26T14:24:51.534Z,101768.38
2022-11-26T14:27:35.093Z,101773.56
2022-11-26T14:30:18.293Z,101776.06
2022-11-26T14:33:14.233Z,101782.66
2022-11-26T14:35:54.899Z,101783.47
2022-11-26T14:38:28.321Z,101782.66
2022-11-26T14:41:00.871Z,101784.88
2022-11-26T14:43:29.493Z,101783.66
2022-11-26T14:46:14.062Z,101779.31
2022-11-26T14:48:50.386Z,101771.38
2022-11-26T14:51:24.902Z,101764.00
2022-11-26T14:53:54.638Z,101764.78
2022-11-26T14:56:24.169Z,101762.19
2022-11-26T14:59:02.426Z,101765.41
2022-11-26T15:01:30.895Z,101759.59
2022-11-26T15:04:04.745Z,101762.56
2022-11-26T15:06:46.165Z,101760.06
2022-11-26T15:09:21.735Z,101754.59
2022-11-26T15:11:55.784Z,101756.88
2022-11-26T15:14:46.815Z,101753.00
2022-11-26T15:17:17.943Z,101759.47
2022-11-26T15:19:46.237Z,101757.59
2022-11-26T15:22:23.407Z,101776.66
2022-11-26T15:24:54.119Z,101774.34
2022-11-26T15:27:39.936Z,101764.28
2022-11-26T15:30:23.724Z,101772.84
2022-11-26T15:33:04.282Z,101774.22
2022-11-26T15:35:33.282Z,101774.63
2022-11-26T15:38:00.453Z,101778.66
2022-11-26T15:44:42.353Z,101784.47
2022-11-26T15:47:22.929Z,101788.84
2022-11-26T15:49:55.096Z,101785.44
2022-11-26T15:52:32.814Z,101788.50
2022-11-26T15:55:12.984Z,101786.25
2022-11-26T15:57:42.148Z,101781.84
2022-11-26T16:00:55.544Z,101776.38
2022-11-26T16:03:48.741Z,101773.94
2022-11-26T16:06:36.835Z,101776.44
2022-11-26T16:09:06.103Z,101772.97
2022-11-26T16:11:36.759Z,101771.78
2022-11-26T16:14:23.729Z,101774.34
2022-11-26T16:16:52.836Z,101772.34
2022-11-26T16:19:27.283Z,101768.66
2022-11-26T16:21:55.004Z,101780.84
2022-11-26T16:24:38.673Z,101785.91
2022-11-26T16:27:17.963Z,101783.94
2022-11-26T16:29:45.829Z,101780.59
2022-11-26T16:32:13.976Z,101774.41
2022-11-26T16:34:41.287Z,101790.03
2022-11-26T16:37:31.440Z,101785.41
2022-11-26T16:40:14.890Z,101780.38
2022-11-26T16:42:41.981Z,101788.50
2022-11-26T16:45:12.059Z,101793.50
2022-11-26T16:47:46.656Z,101781.81
2022-11-26T16:50:21.580Z,101783.69
2022-11-26T16:52:48.899Z,101786.34
2022-11-26T16:55:21.664Z,101789.97
2022-11-26T16:57:51.923Z,101783.03
2022-11-26T17:00:22.842Z,101784.31
2022-11-26T17:02:50.436Z,101778.06
2022-11-26T17:05:19.675Z,101777.72
2022-11-26T17:07:48.310Z,101778.53
2022-11-26T17:10:28.435Z,101778.38
2022-11-26T17:12:55.955Z,101784.63
2022-11-26T17:15:23.055Z,101789.88
2022-11-26T17:17:52.691Z,101792.13
2022-11-26T17:20:27.327Z,101798.41
2022-11-26T17:22:54.642Z,101791.63
2022-11-26T17:25:21.679Z,101794.84
2022-11-26T17:27:48.638Z,101790.66
2022-11-26T17:30:24.014Z,101793.09
2022-11-26T17:32:51.703Z,101774.03
2022-11-26T17:35:23.123Z,101771.06
2022-11-26T17:37:50.124Z,101773.69
2022-11-26T17:40:22.805Z,101770.03
2022-11-26T17:42:50.273Z,101767.06
2022-11-26T17:45:18.899Z,101784.41
2022-11-26T17:47:46.203Z,101779.06
2022-11-26T17:50:22.495Z,101782.69
2022-11-26T17:52:49.917Z,101786.28
2022-11-26T17:55:18.315Z,101788.59
2022-11-26T17:57:45.481Z,101783.22
2022-11-26T18:00:25.826Z,101779.44
2022-11-26T18:02:52.834Z,101781.84
2022-11-26T18:05:19.816Z,101786.78
2022-11-26T18:07:47.106Z,101784.72
2022-11-26T18:10:16.749Z,101785.63
2022-11-26T18:12:44.851Z,101786.91
2022-11-26T18:15:26.882Z,101791.69
2022-11-26T18:17:55.350Z,101794.13
2022-11-26T18:20:25.902Z,101791.78
2022-11-26T18:22:56.041Z,101782.09
2022-11-26T18:25:23.442Z,101785.63
2022-11-26T18:27:50.714Z,101794.53
2022-11-26T18:30:18.519Z,101789.75
2022-11-26T18:32:46.127Z,101796.72
2022-11-26T18:35:13.915Z,101794.41
2022-11-26T18:37:41.568Z,101795.41
2022-11-26T18:40:13.947Z,101789.13
2022-11-26T18:42:40.887Z,101780.81
2022-11-26T18:45:11.839Z,101776.25
2022-11-26T18:47:39.404Z,101778.56
2022-11-26T18:50:07.549Z,101776.31
2022-11-26T18:52:34.513Z,101792.97
2022-11-26T18:55:08.151Z,101791.69
2022-11-26T18:57:37.956Z,101787.63
2022-11-26T19:00:07.030Z,101780.34
2022-11-26T19:02:37.525Z,101791.81
2022-11-26T19:05:05.584Z,101787.06
2022-11-26T19:07:33.167Z,101792.34
2022-11-26T19:10:00.158Z,101793.81
2022-11-26T19:12:27.089Z,101777.28
2022-11-26T19:14:54.071Z,101775.56
2022-11-26T19:17:21.165Z,101778.28
2022-11-26T19:19:48.234Z,101765.81
2022-11-26T19:22:15.223Z,101771.09
2022-11-26T19:24:42.141Z,101763.59
2022-11-26T19:27:09.063Z,101766.94
2022-11-26T19:29:36.052Z,101762.25
2022-11-26T19:32:03.083Z,101753.19
2022-11-26T19:34:30.420Z,101745.63
2022-11-26T19:36:58.224Z,101747.09
2022-11-26T19:39:25.248Z,101744.00
2022-11-26T19:41:52.375Z,101749.22
2022-11-26T19:44:19.314Z,101747.28
2022-11-26T19:46:48.173Z,101741.25
2022-11-26T19:49:15.327Z,101745.56
2022-11-26T19:51:42.625Z,101733.75
2022-11-26T19:54:10.388Z,101728.69
2022-11-26T19:56:37.892Z,101737.44
2022-11-26T19:59:05.251Z,101737.88
2022-11-26T20:01:34.185Z,101733.00
2022-11-26T20:04:05.500Z,101733.56
2022-11-26T20:06:34.827Z,101742.53
2022-11-26T20:09:04.451Z,101739.16
2022-11-26T20:11:31.479Z,101739.72
2022-11-26T20:13:58.765Z,101744.13
2022-11-26T20:16:29.090Z,101744.59
2022-11-26T20:18:59.107Z,101737.19
2022-11-26T20:21:30.939Z,101742.97
2022-11-26T20:24:01.960Z,101741.75
2022-11-26T20:26:35.795Z,101742.84
2022-11-26T20:29:09.152Z,101746.03
2022-11-26T20:31:42.834Z,101738.06
2022-11-26T20:34:09.829Z,101751.81
2022-11-26T20:36:37.753Z,101743.88
2022-11-26T20:39:04.904Z,101741.78
2022-11-26T20:41:31.997Z,101736.03
2022-11-26T20:43:59.829Z,101732.50
2022-11-26T20:46:28.565Z,101730.34
2022-11-26T20:48:56.438Z,101725.94
2022-11-26T20:51:24.803Z,101723.91
2022-11-26T20:54:03.913Z,101724.31
2022-11-26T20:56:31.228Z,101724.19
2022-11-26T20:58:58.267Z,101711.47
2022-11-26T21:01:28.313Z,101717.72
2022-11-26T21:03:56.035Z,101719.59
2022-11-26T21:06:30.201Z,101707.91
2022-11-26T21:09:01.664Z,101715.19
2022-11-26T21:11:29.799Z,101717.66
2022-11-26T21:13:59.821Z,101729.59
2022-11-26T21:16:27.853Z,101726.22
2022-11-26T21:18:55.222Z,101739.97
2022-11-26T21:21:24.390Z,101738.03
2022-11-26T21:23:51.501Z,101739.84
2022-11-26T21:26:22.040Z,101739.19
2022-11-26T21:28:54.788Z,101738.50
2022-11-26T21:31:23.195Z,101733.09
2022-11-26T21:34:02.423Z,101733.59
2022-11-26T21:36:32.595Z,101736.44
2022-11-26T21:39:00.109Z,101733.28
2022-11-26T21:41:27.569Z,101732.09
2022-11-26T21:43:54.777Z,101737.47
2022-11-26T21:46:25.915Z,101732.81
2022-11-26T21:48:54.473Z,101731.59
2022-11-26T21:51:23.305Z,101730.47
2022-11-26T21:53:52.620Z,101730.00
2022-11-26T21:56:25.392Z,101733.47
2022-11-26T21:58:52.460Z,101725.44
2022-11-26T22:01:29.012Z,101725.44
2022-11-26T22:04:00.352Z,101725.72
2022-11-26T22:06:28.013Z,101715.94
2022-11-26T22:08:55.521Z,101721.75
2022-11-26T22:11:27.732Z,101714.13
2022-11-26T22:13:55.207Z,101711.00
2022-11-26T22:16:24.666Z,101714.97
2022-11-26T22:18:52.485Z,101721.78
2022-11-26T22:21:22.127Z,101710.75
2022-11-26T22:23:50.052Z,101708.63
2022-11-26T22:26:18.524Z,101723.94
2022-11-26T22:28:46.459Z,101723.44
2022-11-26T22:31:28.084Z,101722.88
2022-11-26T22:33:59.475Z,101721.53
2022-11-26T22:36:27.371Z,101724.06
2022-11-26T22:38:55.194Z,101719.00
2022-11-26T22:41:22.707Z,101721.16
2022-11-26T22:43:49.936Z,101711.97
2022-11-26T22:46:20.588Z,101707.19
2022-11-26T22:48:59.738Z,101709.16
2022-11-26T22:51:31.083Z,101707.47
2022-11-26T22:54:04.992Z,101702.50
2022-11-26T22:56:32.533Z,101704.84
2022-11-26T22:59:01.577Z,101701.88
2022-11-26T23:01:34.966Z,101696.09
2022-11-26T23:04:07.004Z,101697.91
2022-11-26T23:06:35.859Z,101697.38
2022-11-26T23:09:05.627Z,101693.16
2022-11-26T23:11:37.758Z,101688.38
2022-11-26T23:14:07.392Z,101683.41
2022-11-26T23:16:36.413Z,101685.69
2022-11-26T23:19:04.112Z,101665.72
2022-11-26T23:21:39.774Z,101659.19
2022-11-26T23:24:07.951Z,101656.81
2022-11-26T23:26:37.789Z,101661.09
2022-11-26T23:29:05.755Z,101648.44
2022-11-26T23:31:36.587Z,101642.75
2022-11-26T23:34:05.299Z,101635.75
2022-11-26T23:36:33.137Z,101648.19
2022-11-26T23:39:02.564Z,101634.84
2022-11-26T23:41:29.657Z,101632.41
2022-11-26T23:43:57.048Z,101628.19
2022-11-26T23:46:30.985Z,101617.97
2022-11-26T23:48:58.769Z,101616.19
2022-11-26T23:51:30.327Z,101620.34
2022-11-26T23:53:57.824Z,101617.38
2022-11-26T23:56:32.525Z,101616.63
2022-11-26T23:59:02.928Z,101610.88
